sensor_id;sensor_type;location;lat;lon;timestamp;P1;durP1;ratioP1;P2;durP2;ratioP2
52574;SDS011;38468;48.114;-1.684;2022-08-16T00:01:32;14.05;;;10.65;;
52574;SDS011;38468;48.114;-1.684;2022-08-16T00:03:33;15.15;;;10.25;;
52574;SDS011;38468;48.114;-1.684;2022-08-16T00:05:34;11.80;;;8.77;;
52574;SDS011;38468;48.114;-1.684;2022-08-16T00:07:35;13.48;;;10.10;;
52574;SDS011;38468;48.114;-1.684;2022-08-16T00:09:36;21.38;;;10.60;;
52574;SDS011;38468;48.114;-1.684;2022-08-16T00:11:37;18.13;;;11.30;;
52574;SDS011;38468;48.114;-1.684;2022-08-16T00:13:39;13.48;;;9.43;;
52574;SDS011;38468;48.114;-1.684;2022-08-16T00:15:41;15.77;;;10.60;;
52574;SDS011;38468;48.114;-1.684;2022-08-16T00:17:45;14.73;;;10.00;;
52574;SDS011;38468;48.114;-1.684;2022-08-16T00:19:46;14.05;;;8.73;;
52574;SDS011;38468;48.114;-1.684;2022-08-16T00:21:47;15.95;;;10.55;;
52574;SDS011;38468;48.114;-1.684;2022-08-16T00:23:48;16.67;;;9.40;;
52574;SDS011;38468;48.114;-1.684;2022-08-16T00:25:48;12.45;;;9.68;;
52574;SDS011;38468;48.114;-1.684;2022-08-16T00:27:50;19.40;;;10.40;;
52574;SDS011;38468;48.114;-1.684;2022-08-16T00:29:51;21.13;;;9.10;;
52574;SDS011;38468;48.114;-1.684;2022-08-16T00:31:51;20.10;;;11.20;;
52574;SDS011;38468;48.114;-1.684;2022-08-16T00:33:52;15.27;;;10.45;;
52574;SDS011;38468;48.114;-1.684;2022-08-16T00:35:53;24.83;;;10.30;;
52574;SDS011;38468;48.114;-1.684;2022-08-16T00:37:54;14.57;;;9.45;;
52574;SDS011;38468;48.114;-1.684;2022-08-16T00:39:57;13.27;;;10.68;;
52574;SDS011;38468;48.114;-1.684;2022-08-16T00:41:58;19.60;;;11.07;;
52574;SDS011;38468;48.114;-1.684;2022-08-16T00:43:59;13.50;;;9.40;;
52574;SDS011;38468;48.114;-1.684;2022-08-16T00:48:19;15.15;;;11.30;;
52574;SDS011;38468;48.114;-1.684;2022-08-16T00:50:20;13.40;;;10.48;;
52574;SDS011;38468;48.114;-1.684;2022-08-16T00:52:23;17.58;;;12.52;;
52574;SDS011;38468;48.114;-1.684;2022-08-16T00:54:25;18.17;;;11.18;;
52574;SDS011;38468;48.114;-1.684;2022-08-16T00:56:29;21.45;;;10.65;;
52574;SDS011;38468;48.114;-1.684;2022-08-16T00:58:33;19.70;;;10.20;;
52574;SDS011;38468;48.114;-1.684;2022-08-16T01:00:36;14.38;;;10.43;;
52574;SDS011;38468;48.114;-1.684;2022-08-16T01:02:37;16.73;;;10.20;;
52574;SDS011;38468;48.114;-1.684;2022-08-16T01:04:37;19.90;;;11.15;;
52574;SDS011;38468;48.114;-1.684;2022-08-16T01:06:38;23.48;;;13.15;;
52574;SDS011;38468;48.114;-1.684;2022-08-16T01:08:39;16.83;;;12.93;;
52574;SDS011;38468;48.114;-1.684;2022-08-16T01:10:41;13.07;;;10.65;;
52574;SDS011;38468;48.114;-1.684;2022-08-16T01:12:42;17.45;;;10.52;;
52574;SDS011;38468;48.114;-1.684;2022-08-16T01:14:44;18.50;;;11.60;;
52574;SDS011;38468;48.114;-1.684;2022-08-16T01:16:49;16.90;;;10.70;;
52574;SDS011;38468;48.114;-1.684;2022-08-16T01:18:52;15.80;;;12.30;;
52574;SDS011;38468;48.114;-1.684;2022-08-16T01:21:01;17.52;;;11.40;;
52574;SDS011;38468;48.114;-1.684;2022-08-16T01:23:12;16.08;;;11.75;;
52574;SDS011;38468;48.114;-1.684;2022-08-16T01:25:21;18.38;;;13.50;;
52574;SDS011;38468;48.114;-1.684;2022-08-16T01:27:34;15.25;;;12.30;;
52574;SDS011;38468;48.114;-1.684;2022-08-16T01:30:03;17.08;;;10.75;;
52574;SDS011;38468;48.114;-1.684;2022-08-16T01:32:00;19.90;;;14.73;;
52574;SDS011;38468;48.114;-1.684;2022-08-16T01:34:01;21.73;;;11.30;;
52574;SDS011;38468;48.114;-1.684;2022-08-16T01:36:06;21.07;;;12.77;;
52574;SDS011;38468;48.114;-1.684;2022-08-16T01:40:16;24.20;;;12.30;;
52574;SDS011;38468;48.114;-1.684;2022-08-16T01:42:18;22.63;;;13.00;;
52574;SDS011;38468;48.114;-1.684;2022-08-16T01:44:19;22.13;;;12.75;;
52574;SDS011;38468;48.114;-1.684;2022-08-16T01:48:28;16.27;;;13.23;;
52574;SDS011;38468;48.114;-1.684;2022-08-16T01:50:30;14.32;;;10.05;;
52574;SDS011;38468;48.114;-1.684;2022-08-16T01:52:32;21.42;;;12.43;;
52574;SDS011;38468;48.114;-1.684;2022-08-16T01:54:34;17.05;;;12.77;;
52574;SDS011;38468;48.114;-1.684;2022-08-16T01:56:35;17.17;;;11.77;;
52574;SDS011;38468;48.114;-1.684;2022-08-16T01:58:36;16.58;;;10.50;;
52574;SDS011;38468;48.114;-1.684;2022-08-16T02:00:37;19.63;;;11.02;;
52574;SDS011;38468;48.114;-1.684;2022-08-16T02:02:38;13.38;;;10.93;;
52574;SDS011;38468;48.114;-1.684;2022-08-16T02:04:38;16.35;;;10.40;;
52574;SDS011;38468;48.114;-1.684;2022-08-16T02:06:40;14.55;;;10.43;;
52574;SDS011;38468;48.114;-1.684;2022-08-16T02:08:41;15.07;;;11.30;;
52574;SDS011;38468;48.114;-1.684;2022-08-16T02:10:42;18.30;;;11.10;;
52574;SDS011;38468;48.114;-1.684;2022-08-16T02:12:43;25.77;;;11.77;;
52574;SDS011;38468;48.114;-1.684;2022-08-16T02:14:44;15.40;;;11.57;;
52574;SDS011;38468;48.114;-1.684;2022-08-16T02:16:45;16.98;;;12.00;;
52574;SDS011;38468;48.114;-1.684;2022-08-16T02:18:46;18.63;;;11.65;;
52574;SDS011;38468;48.114;-1.684;2022-08-16T02:20:48;16.87;;;11.77;;
52574;SDS011;38468;48.114;-1.684;2022-08-16T02:22:51;17.88;;;10.35;;
52574;SDS011;38468;48.114;-1.684;2022-08-16T02:24:51;26.27;;;12.63;;
52574;SDS011;38468;48.114;-1.684;2022-08-16T02:26:52;24.63;;;13.38;;
52574;SDS011;38468;48.114;-1.684;2022-08-16T02:28:53;20.58;;;12.68;;
52574;SDS011;38468;48.114;-1.684;2022-08-16T02:30:56;16.63;;;12.35;;
52574;SDS011;38468;48.114;-1.684;2022-08-16T02:32:59;19.33;;;11.90;;
52574;SDS011;38468;48.114;-1.684;2022-08-16T02:35:00;20.05;;;10.90;;
52574;SDS011;38468;48.114;-1.684;2022-08-16T02:37:02;20.08;;;11.55;;
52574;SDS011;38468;48.114;-1.684;2022-08-16T02:39:04;16.98;;;12.00;;
52574;SDS011;38468;48.114;-1.684;2022-08-16T02:41:06;22.08;;;14.98;;
52574;SDS011;38468;48.114;-1.684;2022-08-16T02:43:07;17.73;;;12.95;;
52574;SDS011;38468;48.114;-1.684;2022-08-16T02:45:08;23.38;;;12.65;;
52574;SDS011;38468;48.114;-1.684;2022-08-16T02:47:09;21.52;;;13.00;;
52574;SDS011;38468;48.114;-1.684;2022-08-16T02:49:10;18.25;;;12.30;;
52574;SDS011;38468;48.114;-1.684;2022-08-16T02:51:11;21.30;;;10.95;;
52574;SDS011;38468;48.114;-1.684;2022-08-16T02:53:12;25.02;;;13.85;;
52574;SDS011;38468;48.114;-1.684;2022-08-16T02:55:13;22.52;;;12.40;;
52574;SDS011;38468;48.114;-1.684;2022-08-16T02:57:14;24.52;;;13.77;;
52574;SDS011;38468;48.114;-1.684;2022-08-16T02:59:14;25.40;;;13.32;;
52574;SDS011;38468;48.114;-1.684;2022-08-16T03:01:16;19.98;;;12.10;;
52574;SDS011;38468;48.114;-1.684;2022-08-16T03:03:21;17.05;;;12.63;;
52574;SDS011;38468;48.114;-1.684;2022-08-16T03:05:22;28.20;;;13.57;;
52574;SDS011;38468;48.114;-1.684;2022-08-16T03:07:23;21.20;;;12.20;;
52574;SDS011;38468;48.114;-1.684;2022-08-16T03:09:24;26.75;;;13.07;;
52574;SDS011;38468;48.114;-1.684;2022-08-16T03:11:25;21.25;;;12.57;;
52574;SDS011;38468;48.114;-1.684;2022-08-16T03:13:25;21.92;;;12.18;;
52574;SDS011;38468;48.114;-1.684;2022-08-16T03:15:26;19.48;;;13.70;;
52574;SDS011;38468;48.114;-1.684;2022-08-16T03:17:27;22.02;;;11.60;;
52574;SDS011;38468;48.114;-1.684;2022-08-16T03:19:28;23.70;;;14.30;;
52574;SDS011;38468;48.114;-1.684;2022-08-16T03:21:31;19.23;;;13.30;;
52574;SDS011;38468;48.114;-1.684;2022-08-16T03:23:32;26.15;;;15.77;;
52574;SDS011;38468;48.114;-1.684;2022-08-16T03:25:33;20.27;;;14.13;;
52574;SDS011;38468;48.114;-1.684;2022-08-16T03:27:34;24.13;;;12.52;;
52574;SDS011;38468;48.114;-1.684;2022-08-16T03:29:38;25.35;;;14.63;;
52574;SDS011;38468;48.114;-1.684;2022-08-16T03:31:38;24.08;;;12.98;;
52574;SDS011;38468;48.114;-1.684;2022-08-16T03:33:39;17.88;;;14.07;;
52574;SDS011;38468;48.114;-1.684;2022-08-16T03:35:40;22.55;;;14.07;;
52574;SDS011;38468;48.114;-1.684;2022-08-16T03:37:41;26.08;;;15.00;;
52574;SDS011;38468;48.114;-1.684;2022-08-16T03:39:42;22.40;;;13.88;;
52574;SDS011;38468;48.114;-1.684;2022-08-16T03:41:43;21.73;;;15.20;;
52574;SDS011;38468;48.114;-1.684;2022-08-16T03:43:43;22.88;;;13.43;;
52574;SDS011;38468;48.114;-1.684;2022-08-16T03:45:44;24.85;;;15.98;;
52574;SDS011;38468;48.114;-1.684;2022-08-16T03:47:45;21.27;;;14.57;;
52574;SDS011;38468;48.114;-1.684;2022-08-16T03:49:47;24.65;;;13.32;;
52574;SDS011;38468;48.114;-1.684;2022-08-16T03:51:48;30.92;;;16.35;;
52574;SDS011;38468;48.114;-1.684;2022-08-16T03:53:48;29.90;;;16.20;;
52574;SDS011;38468;48.114;-1.684;2022-08-16T03:55:49;28.90;;;16.25;;
52574;SDS011;38468;48.114;-1.684;2022-08-16T03:57:50;26.67;;;14.25;;
52574;SDS011;38468;48.114;-1.684;2022-08-16T03:59:52;27.73;;;15.20;;
52574;SDS011;38468;48.114;-1.684;2022-08-16T04:01:53;27.92;;;14.80;;
52574;SDS011;38468;48.114;-1.684;2022-08-16T04:03:54;22.70;;;15.18;;
52574;SDS011;38468;48.114;-1.684;2022-08-16T04:05:54;24.48;;;13.73;;
52574;SDS011;38468;48.114;-1.684;2022-08-16T04:07:55;25.15;;;15.32;;
52574;SDS011;38468;48.114;-1.684;2022-08-16T04:09:56;24.02;;;14.43;;
52574;SDS011;38468;48.114;-1.684;2022-08-16T04:11:56;24.58;;;14.40;;
52574;SDS011;38468;48.114;-1.684;2022-08-16T04:13:57;28.17;;;16.25;;
52574;SDS011;38468;48.114;-1.684;2022-08-16T04:15:58;16.80;;;12.55;;
52574;SDS011;38468;48.114;-1.684;2022-08-16T04:18:00;27.15;;;15.98;;
52574;SDS011;38468;48.114;-1.684;2022-08-16T04:20:01;28.40;;;17.27;;
52574;SDS011;38468;48.114;-1.684;2022-08-16T04:22:07;28.52;;;15.82;;
52574;SDS011;38468;48.114;-1.684;2022-08-16T04:24:07;23.48;;;14.75;;
52574;SDS011;38468;48.114;-1.684;2022-08-16T04:26:08;24.45;;;15.82;;
52574;SDS011;38468;48.114;-1.684;2022-08-16T04:28:09;26.17;;;16.00;;
52574;SDS011;38468;48.114;-1.684;2022-08-16T04:30:11;22.20;;;14.43;;
52574;SDS011;38468;48.114;-1.684;2022-08-16T04:32:13;29.50;;;14.55;;
52574;SDS011;38468;48.114;-1.684;2022-08-16T04:34:14;22.02;;;12.98;;
52574;SDS011;38468;48.114;-1.684;2022-08-16T04:36:14;18.63;;;12.73;;
52574;SDS011;38468;48.114;-1.684;2022-08-16T04:38:15;17.85;;;13.15;;
52574;SDS011;38468;48.114;-1.684;2022-08-16T04:40:16;24.73;;;12.70;;
52574;SDS011;38468;48.114;-1.684;2022-08-16T04:42:19;19.42;;;11.90;;
52574;SDS011;38468;48.114;-1.684;2022-08-16T04:44:19;25.20;;;13.90;;
52574;SDS011;38468;48.114;-1.684;2022-08-16T04:46:20;20.67;;;12.50;;
52574;SDS011;38468;48.114;-1.684;2022-08-16T04:48:21;23.15;;;13.63;;
52574;SDS011;38468;48.114;-1.684;2022-08-16T04:50:22;19.40;;;11.52;;
52574;SDS011;38468;48.114;-1.684;2022-08-16T04:52:25;25.38;;;12.25;;
52574;SDS011;38468;48.114;-1.684;2022-08-16T04:54:26;20.35;;;12.98;;
52574;SDS011;38468;48.114;-1.684;2022-08-16T04:56:27;28.52;;;14.48;;
52574;SDS011;38468;48.114;-1.684;2022-08-16T04:58:27;22.17;;;12.93;;
52574;SDS011;38468;48.114;-1.684;2022-08-16T05:00:31;28.48;;;14.43;;
52574;SDS011;38468;48.114;-1.684;2022-08-16T05:02:33;21.83;;;13.85;;
52574;SDS011;38468;48.114;-1.684;2022-08-16T05:04:33;20.10;;;12.35;;
52574;SDS011;38468;48.114;-1.684;2022-08-16T05:06:36;24.08;;;13.43;;
52574;SDS011;38468;48.114;-1.684;2022-08-16T05:08:37;23.85;;;14.13;;
52574;SDS011;38468;48.114;-1.684;2022-08-16T05:10:38;21.50;;;13.05;;
52574;SDS011;38468;48.114;-1.684;2022-08-16T05:12:39;21.85;;;14.05;;
52574;SDS011;38468;48.114;-1.684;2022-08-16T05:14:40;21.08;;;13.07;;
52574;SDS011;38468;48.114;-1.684;2022-08-16T05:16:40;20.42;;;13.38;;
52574;SDS011;38468;48.114;-1.684;2022-08-16T05:20:43;24.88;;;13.80;;
52574;SDS011;38468;48.114;-1.684;2022-08-16T05:22:43;22.15;;;11.90;;
52574;SDS011;38468;48.114;-1.684;2022-08-16T05:24:44;20.58;;;11.75;;
52574;SDS011;38468;48.114;-1.684;2022-08-16T05:26:45;30.38;;;13.10;;
52574;SDS011;38468;48.114;-1.684;2022-08-16T05:28:46;32.03;;;14.18;;
52574;SDS011;38468;48.114;-1.684;2022-08-16T05:32:50;30.10;;;15.55;;
52574;SDS011;38468;48.114;-1.684;2022-08-16T05:34:51;17.25;;;11.50;;
52574;SDS011;38468;48.114;-1.684;2022-08-16T05:36:51;31.42;;;15.40;;
52574;SDS011;38468;48.114;-1.684;2022-08-16T05:38:56;25.77;;;14.02;;
52574;SDS011;38468;48.114;-1.684;2022-08-16T05:40:57;21.85;;;14.23;;
52574;SDS011;38468;48.114;-1.684;2022-08-16T05:44:59;19.25;;;12.25;;
52574;SDS011;38468;48.114;-1.684;2022-08-16T05:47:00;25.98;;;15.02;;
52574;SDS011;38468;48.114;-1.684;2022-08-16T05:49:01;16.05;;;11.88;;
52574;SDS011;38468;48.114;-1.684;2022-08-16T05:51:02;20.37;;;11.97;;
52574;SDS011;38468;48.114;-1.684;2022-08-16T05:53:03;22.73;;;13.15;;
52574;SDS011;38468;48.114;-1.684;2022-08-16T05:55:04;23.48;;;12.70;;
52574;SDS011;38468;48.114;-1.684;2022-08-16T05:57:05;21.38;;;12.02;;
52574;SDS011;38468;48.114;-1.684;2022-08-16T05:59:06;29.92;;;15.68;;
52574;SDS011;38468;48.114;-1.684;2022-08-16T06:01:07;24.60;;;13.05;;
52574;SDS011;38468;48.114;-1.684;2022-08-16T06:03:08;29.00;;;13.20;;
52574;SDS011;38468;48.114;-1.684;2022-08-16T06:05:08;27.48;;;14.20;;
52574;SDS011;38468;48.114;-1.684;2022-08-16T06:07:09;25.23;;;12.67;;
52574;SDS011;38468;48.114;-1.684;2022-08-16T06:09:11;20.10;;;12.63;;
52574;SDS011;38468;48.114;-1.684;2022-08-16T06:13:13;22.33;;;11.80;;
52574;SDS011;38468;48.114;-1.684;2022-08-16T06:15:15;25.63;;;13.07;;
52574;SDS011;38468;48.114;-1.684;2022-08-16T06:17:17;25.83;;;14.82;;
52574;SDS011;38468;48.114;-1.684;2022-08-16T06:19:18;20.90;;;12.55;;
52574;SDS011;38468;48.114;-1.684;2022-08-16T06:21:19;21.92;;;13.15;;
52574;SDS011;38468;48.114;-1.684;2022-08-16T06:23:20;18.80;;;11.65;;
52574;SDS011;38468;48.114;-1.684;2022-08-16T06:25:23;27.42;;;14.38;;
52574;SDS011;38468;48.114;-1.684;2022-08-16T06:27:25;18.63;;;11.50;;
52574;SDS011;38468;48.114;-1.684;2022-08-16T06:29:25;27.88;;;13.30;;
52574;SDS011;38468;48.114;-1.684;2022-08-16T06:31:26;23.45;;;14.35;;
52574;SDS011;38468;48.114;-1.684;2022-08-16T06:33:27;16.10;;;11.93;;
52574;SDS011;38468;48.114;-1.684;2022-08-16T06:35:28;24.57;;;14.77;;
52574;SDS011;38468;48.114;-1.684;2022-08-16T06:39:31;21.38;;;11.75;;
52574;SDS011;38468;48.114;-1.684;2022-08-16T06:41:31;18.90;;;11.88;;
52574;SDS011;38468;48.114;-1.684;2022-08-16T06:43:32;19.02;;;12.00;;
52574;SDS011;38468;48.114;-1.684;2022-08-16T06:45:34;28.02;;;12.48;;
52574;SDS011;38468;48.114;-1.684;2022-08-16T06:47:37;27.77;;;14.07;;
52574;SDS011;38468;48.114;-1.684;2022-08-16T06:49:38;19.35;;;13.38;;
52574;SDS011;38468;48.114;-1.684;2022-08-16T06:51:39;20.08;;;12.40;;
52574;SDS011;38468;48.114;-1.684;2022-08-16T06:53:40;19.50;;;12.80;;
52574;SDS011;38468;48.114;-1.684;2022-08-16T06:55:41;20.50;;;11.32;;
52574;SDS011;38468;48.114;-1.684;2022-08-16T06:57:42;31.27;;;13.48;;
52574;SDS011;38468;48.114;-1.684;2022-08-16T06:59:42;21.90;;;12.23;;
52574;SDS011;38468;48.114;-1.684;2022-08-16T07:01:44;24.17;;;12.23;;
52574;SDS011;38468;48.114;-1.684;2022-08-16T07:03:44;17.52;;;12.20;;
52574;SDS011;38468;48.114;-1.684;2022-08-16T07:05:45;22.10;;;13.40;;
52574;SDS011;38468;48.114;-1.684;2022-08-16T07:07:46;15.93;;;12.02;;
52574;SDS011;38468;48.114;-1.684;2022-08-16T07:09:48;17.33;;;11.43;;
52574;SDS011;38468;48.114;-1.684;2022-08-16T07:11:49;19.40;;;13.70;;
52574;SDS011;38468;48.114;-1.684;2022-08-16T07:13:50;22.33;;;12.70;;
52574;SDS011;38468;48.114;-1.684;2022-08-16T07:15:51;18.13;;;10.07;;
52574;SDS011;38468;48.114;-1.684;2022-08-16T07:17:52;12.25;;;10.15;;
52574;SDS011;38468;48.114;-1.684;2022-08-16T07:19:53;20.67;;;10.63;;
52574;SDS011;38468;48.114;-1.684;2022-08-16T07:21:54;20.60;;;10.20;;
52574;SDS011;38468;48.114;-1.684;2022-08-16T07:23:55;16.55;;;10.75;;
52574;SDS011;38468;48.114;-1.684;2022-08-16T07:25:55;18.95;;;9.02;;
52574;SDS011;38468;48.114;-1.684;2022-08-16T07:27:56;16.20;;;9.73;;
52574;SDS011;38468;48.114;-1.684;2022-08-16T07:29:57;21.05;;;11.00;;
52574;SDS011;38468;48.114;-1.684;2022-08-16T07:31:58;27.85;;;9.38;;
52574;SDS011;38468;48.114;-1.684;2022-08-16T07:33:59;19.17;;;10.00;;
52574;SDS011;38468;48.114;-1.684;2022-08-16T07:36:00;15.27;;;10.02;;
52574;SDS011;38468;48.114;-1.684;2022-08-16T07:38:01;14.85;;;9.38;;
52574;SDS011;38468;48.114;-1.684;2022-08-16T07:40:02;13.98;;;9.15;;
52574;SDS011;38468;48.114;-1.684;2022-08-16T07:42:04;11.15;;;9.27;;
52574;SDS011;38468;48.114;-1.684;2022-08-16T07:44:05;14.77;;;8.80;;
52574;SDS011;38468;48.114;-1.684;2022-08-16T07:46:06;16.67;;;9.20;;
52574;SDS011;38468;48.114;-1.684;2022-08-16T07:48:08;14.63;;;9.10;;
52574;SDS011;38468;48.114;-1.684;2022-08-16T07:50:10;19.77;;;9.57;;
52574;SDS011;38468;48.114;-1.684;2022-08-16T07:52:13;13.52;;;8.20;;
52574;SDS011;38468;48.114;-1.684;2022-08-16T07:54:13;17.02;;;7.53;;
52574;SDS011;38468;48.114;-1.684;2022-08-16T07:56:15;24.92;;;8.85;;
52574;SDS011;38468;48.114;-1.684;2022-08-16T07:58:15;10.50;;;9.32;;
52574;SDS011;38468;48.114;-1.684;2022-08-16T08:00:17;15.23;;;8.60;;
52574;SDS011;38468;48.114;-1.684;2022-08-16T08:02:18;17.92;;;9.55;;
52574;SDS011;38468;48.114;-1.684;2022-08-16T08:04:19;10.82;;;7.63;;
52574;SDS011;38468;48.114;-1.684;2022-08-16T08:06:20;20.98;;;10.68;;
52574;SDS011;38468;48.114;-1.684;2022-08-16T08:08:22;11.32;;;7.43;;
52574;SDS011;38468;48.114;-1.684;2022-08-16T08:10:23;11.82;;;6.65;;
52574;SDS011;38468;48.114;-1.684;2022-08-16T08:12:24;7.20;;;5.80;;
52574;SDS011;38468;48.114;-1.684;2022-08-16T08:14:25;4.45;;;3.90;;
52574;SDS011;38468;48.114;-1.684;2022-08-16T08:16:26;10.68;;;5.35;;
52574;SDS011;38468;48.114;-1.684;2022-08-16T08:18:27;4.93;;;3.45;;
52574;SDS011;38468;48.114;-1.684;2022-08-16T08:20:29;8.82;;;3.08;;
52574;SDS011;38468;48.114;-1.684;2022-08-16T08:22:29;4.28;;;2.88;;
52574;SDS011;38468;48.114;-1.684;2022-08-16T08:24:32;2.55;;;2.35;;
52574;SDS011;38468;48.114;-1.684;2022-08-16T08:26:34;2.33;;;1.98;;
52574;SDS011;38468;48.114;-1.684;2022-08-16T08:28:35;6.05;;;2.03;;
52574;SDS011;38468;48.114;-1.684;2022-08-16T08:30:36;3.58;;;2.08;;
52574;SDS011;38468;48.114;-1.684;2022-08-16T08:32:37;3.67;;;1.92;;
52574;SDS011;38468;48.114;-1.684;2022-08-16T08:34:38;4.38;;;1.77;;
52574;SDS011;38468;48.114;-1.684;2022-08-16T08:36:39;2.65;;;2.08;;
52574;SDS011;38468;48.114;-1.684;2022-08-16T08:38:40;2.28;;;1.92;;
52574;SDS011;38468;48.114;-1.684;2022-08-16T08:40:41;2.50;;;2.30;;
52574;SDS011;38468;48.114;-1.684;2022-08-16T08:42:42;3.57;;;2.60;;
52574;SDS011;38468;48.114;-1.684;2022-08-16T08:44:42;4.82;;;2.13;;
52574;SDS011;38468;48.114;-1.684;2022-08-16T08:46:43;3.47;;;1.98;;
52574;SDS011;38468;48.114;-1.684;2022-08-16T08:48:44;3.53;;;1.75;;
52574;SDS011;38468;48.114;-1.684;2022-08-16T08:50:45;3.50;;;2.35;;
52574;SDS011;38468;48.114;-1.684;2022-08-16T08:52:46;2.40;;;1.50;;
52574;SDS011;38468;48.114;-1.684;2022-08-16T08:54:47;4.05;;;2.15;;
52574;SDS011;38468;48.114;-1.684;2022-08-16T08:56:48;2.55;;;1.95;;
52574;SDS011;38468;48.114;-1.684;2022-08-16T09:00:51;9.73;;;2.45;;
52574;SDS011;38468;48.114;-1.684;2022-08-16T09:02:52;2.47;;;1.95;;
52574;SDS011;38468;48.114;-1.684;2022-08-16T09:04:53;2.10;;;2.00;;
52574;SDS011;38468;48.114;-1.684;2022-08-16T09:06:54;5.30;;;2.47;;
52574;SDS011;38468;48.114;-1.684;2022-08-16T09:08:55;2.22;;;2.00;;
52574;SDS011;38468;48.114;-1.684;2022-08-16T09:10:56;4.65;;;1.92;;
52574;SDS011;38468;48.114;-1.684;2022-08-16T09:12:58;3.08;;;2.03;;
52574;SDS011;38468;48.114;-1.684;2022-08-16T09:14:58;1.80;;;1.25;;
52574;SDS011;38468;48.114;-1.684;2022-08-16T09:16:59;3.78;;;1.75;;
52574;SDS011;38468;48.114;-1.684;2022-08-16T09:19:00;1.85;;;1.50;;
52574;SDS011;38468;48.114;-1.684;2022-08-16T09:21:01;2.42;;;1.60;;
52574;SDS011;38468;48.114;-1.684;2022-08-16T09:23:03;5.35;;;1.42;;
52574;SDS011;38468;48.114;-1.684;2022-08-16T09:25:04;1.52;;;1.42;;
52574;SDS011;38468;48.114;-1.684;2022-08-16T09:27:05;1.65;;;1.55;;
52574;SDS011;38468;48.114;-1.684;2022-08-16T09:29:06;2.78;;;1.50;;
52574;SDS011;38468;48.114;-1.684;2022-08-16T09:31:06;3.03;;;1.88;;
52574;SDS011;38468;48.114;-1.684;2022-08-16T09:33:07;2.40;;;1.48;;
52574;SDS011;38468;48.114;-1.684;2022-08-16T09:35:09;2.03;;;1.42;;
52574;SDS011;38468;48.114;-1.684;2022-08-16T09:37:09;1.45;;;1.13;;
52574;SDS011;38468;48.114;-1.684;2022-08-16T09:39:12;1.13;;;1.00;;
52574;SDS011;38468;48.114;-1.684;2022-08-16T09:41:13;1.40;;;1.30;;
52574;SDS011;38468;48.114;-1.684;2022-08-16T09:43:16;1.20;;;1.10;;
52574;SDS011;38468;48.114;-1.684;2022-08-16T09:45:18;1.33;;;1.23;;
52574;SDS011;38468;48.114;-1.684;2022-08-16T09:47:20;6.82;;;1.73;;
52574;SDS011;38468;48.114;-1.684;2022-08-16T09:49:21;3.33;;;1.73;;
52574;SDS011;38468;48.114;-1.684;2022-08-16T09:51:22;0.90;;;0.90;;
52574;SDS011;38468;48.114;-1.684;2022-08-16T09:53:25;2.50;;;1.33;;
52574;SDS011;38468;48.114;-1.684;2022-08-16T09:55:25;1.27;;;1.13;;
52574;SDS011;38468;48.114;-1.684;2022-08-16T09:57:26;1.70;;;1.42;;
52574;SDS011;38468;48.114;-1.684;2022-08-16T09:59:27;1.83;;;1.55;;
52574;SDS011;38468;48.114;-1.684;2022-08-16T10:01:28;1.38;;;1.25;;
52574;SDS011;38468;48.114;-1.684;2022-08-16T10:03:30;2.58;;;1.60;;
52574;SDS011;38468;48.114;-1.684;2022-08-16T10:05:31;5.75;;;1.30;;
52574;SDS011;38468;48.114;-1.684;2022-08-16T10:07:36;1.07;;;1.07;;
52574;SDS011;38468;48.114;-1.684;2022-08-16T10:09:37;3.40;;;1.20;;
52574;SDS011;38468;48.114;-1.684;2022-08-16T10:11:38;2.70;;;1.60;;
52574;SDS011;38468;48.114;-1.684;2022-08-16T10:13:58;1.90;;;1.33;;
52574;SDS011;38468;48.114;-1.684;2022-08-16T10:15:59;0.95;;;0.90;;
52574;SDS011;38468;48.114;-1.684;2022-08-16T10:18:01;5.35;;;1.55;;
52574;SDS011;38468;48.114;-1.684;2022-08-16T10:20:06;1.40;;;0.57;;
52574;SDS011;38468;48.114;-1.684;2022-08-16T10:22:10;1.83;;;1.38;;
52574;SDS011;38468;48.114;-1.684;2022-08-16T10:24:11;1.63;;;0.90;;
52574;SDS011;38468;48.114;-1.684;2022-08-16T10:26:11;1.48;;;1.10;;
52574;SDS011;38468;48.114;-1.684;2022-08-16T10:28:12;1.17;;;1.00;;
52574;SDS011;38468;48.114;-1.684;2022-08-16T10:30:15;1.17;;;1.10;;
52574;SDS011;38468;48.114;-1.684;2022-08-16T10:32:17;1.20;;;1.02;;
52574;SDS011;38468;48.114;-1.684;2022-08-16T10:34:20;0.98;;;0.70;;
52574;SDS011;38468;48.114;-1.684;2022-08-16T10:36:21;2.63;;;1.77;;
52574;SDS011;38468;48.114;-1.684;2022-08-16T10:38:21;1.67;;;0.80;;
52574;SDS011;38468;48.114;-1.684;2022-08-16T10:40:22;0.95;;;0.93;;
52574;SDS011;38468;48.114;-1.684;2022-08-16T10:42:23;1.30;;;1.05;;
52574;SDS011;38468;48.114;-1.684;2022-08-16T10:44:23;1.30;;;0.98;;
52574;SDS011;38468;48.114;-1.684;2022-08-16T10:46:24;1.23;;;1.13;;
52574;SDS011;38468;48.114;-1.684;2022-08-16T10:48:25;2.40;;;1.15;;
52574;SDS011;38468;48.114;-1.684;2022-08-16T10:50:27;7.68;;;1.13;;
52574;SDS011;38468;48.114;-1.684;2022-08-16T10:52:28;1.40;;;1.30;;
52574;SDS011;38468;48.114;-1.684;2022-08-16T10:54:32;1.50;;;1.40;;
52574;SDS011;38468;48.114;-1.684;2022-08-16T10:56:33;2.38;;;1.52;;
52574;SDS011;38468;48.114;-1.684;2022-08-16T10:58:35;2.38;;;1.58;;
52574;SDS011;38468;48.114;-1.684;2022-08-16T11:00:38;4.00;;;1.50;;
52574;SDS011;38468;48.114;-1.684;2022-08-16T11:02:41;3.03;;;1.15;;
52574;SDS011;38468;48.114;-1.684;2022-08-16T11:04:43;4.70;;;1.42;;
52574;SDS011;38468;48.114;-1.684;2022-08-16T11:06:44;2.72;;;0.93;;
52574;SDS011;38468;48.114;-1.684;2022-08-16T11:08:45;1.80;;;1.15;;
52574;SDS011;38468;48.114;-1.684;2022-08-16T11:10:46;4.10;;;1.70;;
52574;SDS011;38468;48.114;-1.684;2022-08-16T11:12:46;3.35;;;2.05;;
52574;SDS011;38468;48.114;-1.684;2022-08-16T11:14:47;1.95;;;1.50;;
52574;SDS011;38468;48.114;-1.684;2022-08-16T11:16:48;2.70;;;1.23;;
52574;SDS011;38468;48.114;-1.684;2022-08-16T11:18:49;1.08;;;1.08;;
52574;SDS011;38468;48.114;-1.684;2022-08-16T11:20:49;5.82;;;1.05;;
52574;SDS011;38468;48.114;-1.684;2022-08-16T11:22:50;1.17;;;1.05;;
52574;SDS011;38468;48.114;-1.684;2022-08-16T11:24:51;1.30;;;1.20;;
52574;SDS011;38468;48.114;-1.684;2022-08-16T11:26:52;2.03;;;1.10;;
52574;SDS011;38468;48.114;-1.684;2022-08-16T11:28:53;1.70;;;1.33;;
52574;SDS011;38468;48.114;-1.684;2022-08-16T11:30:55;0.88;;;0.88;;
52574;SDS011;38468;48.114;-1.684;2022-08-16T11:32:56;5.70;;;1.52;;
52574;SDS011;38468;48.114;-1.684;2022-08-16T11:34:57;1.75;;;1.63;;
52574;SDS011;38468;48.114;-1.684;2022-08-16T11:37:00;1.58;;;1.45;;
52574;SDS011;38468;48.114;-1.684;2022-08-16T11:39:01;4.03;;;1.30;;
52574;SDS011;38468;48.114;-1.684;2022-08-16T11:41:02;2.60;;;1.07;;
52574;SDS011;38468;48.114;-1.684;2022-08-16T11:43:03;1.38;;;1.15;;
52574;SDS011;38468;48.114;-1.684;2022-08-16T11:47:06;1.65;;;1.30;;
52574;SDS011;38468;48.114;-1.684;2022-08-16T11:49:07;1.00;;;1.00;;
52574;SDS011;38468;48.114;-1.684;2022-08-16T11:51:08;1.67;;;1.58;;
52574;SDS011;38468;48.114;-1.684;2022-08-16T11:53:09;2.78;;;1.38;;
52574;SDS011;38468;48.114;-1.684;2022-08-16T11:55:11;1.60;;;1.50;;
52574;SDS011;38468;48.114;-1.684;2022-08-16T11:57:12;2.30;;;1.63;;
52574;SDS011;38468;48.114;-1.684;2022-08-16T11:59:13;0.70;;;0.70;;
52574;SDS011;38468;48.114;-1.684;2022-08-16T12:01:13;1.13;;;1.10;;
52574;SDS011;38468;48.114;-1.684;2022-08-16T12:03:14;2.13;;;1.85;;
52574;SDS011;38468;48.114;-1.684;2022-08-16T12:05:16;1.38;;;1.27;;
52574;SDS011;38468;48.114;-1.684;2022-08-16T12:07:17;1.50;;;1.40;;
52574;SDS011;38468;48.114;-1.684;2022-08-16T12:09:18;2.83;;;1.60;;